sensor_id;sensor_type;location;lat;lon;timestamp;P1;durP1;ratioP1;P2;durP2;ratioP2
20772;SDS011;10546;50.674;4.616;2022-12-29T00:01:44;2.43;;;1.30;;
20772;SDS011;10546;50.674;4.616;2022-12-29T00:04:11;2.27;;;1.20;;
20772;SDS011;10546;50.674;4.616;2022-12-29T00:06:38;1.67;;;1.20;;
20772;SDS011;10546;50.674;4.616;2022-12-29T00:09:04;1.57;;;1.03;;
20772;SDS011;10546;50.674;4.616;2022-12-29T00:11:29;2.03;;;1.23;;
20772;SDS011;10546;50.674;4.616;2022-12-29T00:13:55;1.10;;;0.90;;
20772;SDS011;10546;50.674;4.616;2022-12-29T00:16:43;2.00;;;0.90;;
20772;SDS011;10546;50.674;4.616;2022-12-29T00:19:10;2.80;;;1.03;;
20772;SDS011;10546;50.674;4.616;2022-12-29T00:21:57;3.47;;;0.90;;
20772;SDS011;10546;50.674;4.616;2022-12-29T00:24:41;3.13;;;1.10;;
20772;SDS011;10546;50.674;4.616;2022-12-29T00:27:26;1.33;;;0.70;;
20772;SDS011;10546;50.674;4.616;2022-12-29T00:30:12;1.93;;;1.10;;
20772;SDS011;10546;50.674;4.616;2022-12-29T00:33:12;2.90;;;0.90;;
20772;SDS011;10546;50.674;4.616;2022-12-29T00:35:59;2.40;;;0.83;;
20772;SDS011;10546;50.674;4.616;2022-12-29T00:38:55;3.90;;;0.90;;
20772;SDS011;10546;50.674;4.616;2022-12-29T00:41:45;2.33;;;1.10;;
20772;SDS011;10546;50.674;4.616;2022-12-29T00:44:31;1.67;;;0.97;;
20772;SDS011;10546;50.674;4.616;2022-12-29T00:46:57;2.53;;;1.10;;
20772;SDS011;10546;50.674;4.616;2022-12-29T00:49:27;5.20;;;1.60;;
20772;SDS011;10546;50.674;4.616;2022-12-29T00:52:05;4.10;;;1.00;;
20772;SDS011;10546;50.674;4.616;2022-12-29T00:54:33;3.90;;;1.03;;
20772;SDS011;10546;50.674;4.616;2022-12-29T00:57:01;1.93;;;1.03;;
20772;SDS011;10546;50.674;4.616;2022-12-29T00:59:27;8.70;;;1.30;;
20772;SDS011;10546;50.674;4.616;2022-12-29T01:01:53;2.50;;;1.40;;
20772;SDS011;10546;50.674;4.616;2022-12-29T01:04:20;1.97;;;1.27;;
20772;SDS011;10546;50.674;4.616;2022-12-29T01:06:47;2.53;;;0.90;;
20772;SDS011;10546;50.674;4.616;2022-12-29T01:09:13;2.47;;;1.40;;
20772;SDS011;10546;50.674;4.616;2022-12-29T01:11:58;2.23;;;1.13;;
20772;SDS011;10546;50.674;4.616;2022-12-29T01:14:24;3.33;;;1.43;;
20772;SDS011;10546;50.674;4.616;2022-12-29T01:16:50;4.50;;;1.10;;
20772;SDS011;10546;50.674;4.616;2022-12-29T01:19:16;2.17;;;1.00;;
20772;SDS011;10546;50.674;4.616;2022-12-29T01:21:42;2.40;;;1.30;;
20772;SDS011;10546;50.674;4.616;2022-12-29T01:24:08;3.17;;;1.20;;
20772;SDS011;10546;50.674;4.616;2022-12-29T01:26:34;3.07;;;1.30;;
20772;SDS011;10546;50.674;4.616;2022-12-29T01:29:00;2.33;;;1.20;;
20772;SDS011;10546;50.674;4.616;2022-12-29T01:31:26;3.90;;;1.40;;
20772;SDS011;10546;50.674;4.616;2022-12-29T01:33:51;2.10;;;1.33;;
20772;SDS011;10546;50.674;4.616;2022-12-29T01:36:17;3.70;;;1.50;;
20772;SDS011;10546;50.674;4.616;2022-12-29T01:38:43;2.10;;;1.40;;
20772;SDS011;10546;50.674;4.616;2022-12-29T01:41:10;3.20;;;1.80;;
20772;SDS011;10546;50.674;4.616;2022-12-29T01:43:40;4.57;;;1.30;;
20772;SDS011;10546;50.674;4.616;2022-12-29T01:46:15;1.63;;;1.20;;
20772;SDS011;10546;50.674;4.616;2022-12-29T01:48:49;2.03;;;1.17;;
20772;SDS011;10546;50.674;4.616;2022-12-29T01:51:17;5.80;;;1.60;;
20772;SDS011;10546;50.674;4.616;2022-12-29T01:53:44;2.70;;;1.50;;
20772;SDS011;10546;50.674;4.616;2022-12-29T01:56:10;1.80;;;1.03;;
20772;SDS011;10546;50.674;4.616;2022-12-29T01:58:41;1.30;;;1.13;;
20772;SDS011;10546;50.674;4.616;2022-12-29T02:01:11;1.73;;;1.20;;
20772;SDS011;10546;50.674;4.616;2022-12-29T02:03:37;2.00;;;1.40;;
20772;SDS011;10546;50.674;4.616;2022-12-29T02:08:41;3.23;;;1.30;;
20772;SDS011;10546;50.674;4.616;2022-12-29T02:11:08;2.23;;;1.23;;
20772;SDS011;10546;50.674;4.616;2022-12-29T02:13:34;3.90;;;1.27;;
20772;SDS011;10546;50.674;4.616;2022-12-29T02:25:01;2.23;;;1.33;;
20772;SDS011;10546;50.674;4.616;2022-12-29T02:27:48;3.90;;;1.20;;
20772;SDS011;10546;50.674;4.616;2022-12-29T02:30:34;3.80;;;1.13;;
20772;SDS011;10546;50.674;4.616;2022-12-29T02:35:39;3.40;;;1.20;;
20772;SDS011;10546;50.674;4.616;2022-12-29T02:40:47;4.17;;;1.10;;
20772;SDS011;10546;50.674;4.616;2022-12-29T02:43:54;2.07;;;1.37;;
20772;SDS011;10546;50.674;4.616;2022-12-29T02:46:19;3.23;;;1.30;;
20772;SDS011;10546;50.674;4.616;2022-12-29T02:49:15;1.57;;;1.00;;
20772;SDS011;10546;50.674;4.616;2022-12-29T02:51:51;2.13;;;1.40;;
20772;SDS011;10546;50.674;4.616;2022-12-29T02:54:39;4.07;;;1.63;;
20772;SDS011;10546;50.674;4.616;2022-12-29T02:59:47;1.57;;;1.07;;
20772;SDS011;10546;50.674;4.616;2022-12-29T03:08:23;2.80;;;1.30;;
20772;SDS011;10546;50.674;4.616;2022-12-29T03:11:00;2.80;;;1.20;;
20772;SDS011;10546;50.674;4.616;2022-12-29T03:19:15;5.00;;;1.20;;
20772;SDS011;10546;50.674;4.616;2022-12-29T03:21:49;1.67;;;1.10;;
20772;SDS011;10546;50.674;4.616;2022-12-29T03:24:38;4.70;;;1.40;;
20772;SDS011;10546;50.674;4.616;2022-12-29T03:27:09;3.97;;;1.10;;
20772;SDS011;10546;50.674;4.616;2022-12-29T03:29:42;2.20;;;0.83;;
20772;SDS011;10546;50.674;4.616;2022-12-29T03:32:12;3.43;;;1.10;;
20772;SDS011;10546;50.674;4.616;2022-12-29T03:34:39;4.07;;;1.10;;
20772;SDS011;10546;50.674;4.616;2022-12-29T03:37:10;4.27;;;1.17;;
20772;SDS011;10546;50.674;4.616;2022-12-29T03:39:39;4.20;;;1.20;;
20772;SDS011;10546;50.674;4.616;2022-12-29T03:42:05;6.43;;;1.30;;
20772;SDS011;10546;50.674;4.616;2022-12-29T03:44:37;3.27;;;1.00;;
20772;SDS011;10546;50.674;4.616;2022-12-29T03:47:05;4.90;;;1.20;;
20772;SDS011;10546;50.674;4.616;2022-12-29T03:49:31;6.93;;;0.90;;
20772;SDS011;10546;50.674;4.616;2022-12-29T03:51:57;4.50;;;1.00;;
20772;SDS011;10546;50.674;4.616;2022-12-29T03:54:23;4.53;;;0.83;;
20772;SDS011;10546;50.674;4.616;2022-12-29T03:56:49;2.63;;;0.90;;
20772;SDS011;10546;50.674;4.616;2022-12-29T03:59:15;5.53;;;0.80;;
20772;SDS011;10546;50.674;4.616;2022-12-29T04:01:40;3.20;;;0.93;;
20772;SDS011;10546;50.674;4.616;2022-12-29T04:04:06;7.73;;;1.00;;
20772;SDS011;10546;50.674;4.616;2022-12-29T04:06:31;4.60;;;1.10;;
20772;SDS011;10546;50.674;4.616;2022-12-29T04:08:57;1.97;;;0.90;;
20772;SDS011;10546;50.674;4.616;2022-12-29T04:11:23;5.13;;;1.20;;
20772;SDS011;10546;50.674;4.616;2022-12-29T04:13:48;4.57;;;1.30;;
20772;SDS011;10546;50.674;4.616;2022-12-29T04:16:14;3.23;;;1.13;;
20772;SDS011;10546;50.674;4.616;2022-12-29T04:18:40;3.07;;;1.40;;
20772;SDS011;10546;50.674;4.616;2022-12-29T04:21:05;7.33;;;1.50;;
20772;SDS011;10546;50.674;4.616;2022-12-29T04:23:32;3.50;;;1.83;;
20772;SDS011;10546;50.674;4.616;2022-12-29T04:25:59;5.87;;;1.10;;
20772;SDS011;10546;50.674;4.616;2022-12-29T04:28:26;3.90;;;1.40;;
20772;SDS011;10546;50.674;4.616;2022-12-29T04:30:52;5.03;;;0.97;;
20772;SDS011;10546;50.674;4.616;2022-12-29T04:33:17;5.87;;;1.27;;
20772;SDS011;10546;50.674;4.616;2022-12-29T04:35:43;5.40;;;1.10;;
20772;SDS011;10546;50.674;4.616;2022-12-29T04:38:09;5.90;;;1.23;;
20772;SDS011;10546;50.674;4.616;2022-12-29T04:40:37;6.70;;;1.00;;
20772;SDS011;10546;50.674;4.616;2022-12-29T04:43:04;5.63;;;1.03;;
20772;SDS011;10546;50.674;4.616;2022-12-29T04:45:29;6.53;;;1.73;;
20772;SDS011;10546;50.674;4.616;2022-12-29T04:47:55;3.87;;;1.10;;
20772;SDS011;10546;50.674;4.616;2022-12-29T04:50:20;1.00;;;0.90;;
20772;SDS011;10546;50.674;4.616;2022-12-29T04:52:46;4.97;;;0.77;;
20772;SDS011;10546;50.674;4.616;2022-12-29T04:55:12;6.53;;;1.33;;
20772;SDS011;10546;50.674;4.616;2022-12-29T04:57:37;3.50;;;1.53;;
20772;SDS011;10546;50.674;4.616;2022-12-29T05:00:03;2.80;;;1.00;;
20772;SDS011;10546;50.674;4.616;2022-12-29T05:02:29;7.93;;;1.00;;
20772;SDS011;10546;50.674;4.616;2022-12-29T05:04:55;5.97;;;1.23;;
20772;SDS011;10546;50.674;4.616;2022-12-29T05:07:20;6.57;;;1.07;;
20772;SDS011;10546;50.674;4.616;2022-12-29T05:09:46;6.93;;;1.20;;
20772;SDS011;10546;50.674;4.616;2022-12-29T05:12:11;4.57;;;0.97;;
20772;SDS011;10546;50.674;4.616;2022-12-29T05:14:37;5.00;;;1.10;;
20772;SDS011;10546;50.674;4.616;2022-12-29T05:17:02;5.17;;;1.27;;
20772;SDS011;10546;50.674;4.616;2022-12-29T05:19:28;6.90;;;1.00;;
20772;SDS011;10546;50.674;4.616;2022-12-29T05:21:53;3.27;;;0.83;;
20772;SDS011;10546;50.674;4.616;2022-12-29T05:24:19;3.03;;;0.90;;
20772;SDS011;10546;50.674;4.616;2022-12-29T05:26:45;4.67;;;0.90;;
20772;SDS011;10546;50.674;4.616;2022-12-29T05:29:10;6.43;;;1.30;;
20772;SDS011;10546;50.674;4.616;2022-12-29T05:31:36;5.03;;;1.07;;
20772;SDS011;10546;50.674;4.616;2022-12-29T05:34:02;5.83;;;1.13;;
20772;SDS011;10546;50.674;4.616;2022-12-29T05:36:28;4.90;;;1.13;;
20772;SDS011;10546;50.674;4.616;2022-12-29T05:38:53;6.87;;;1.30;;
20772;SDS011;10546;50.674;4.616;2022-12-29T05:41:19;9.53;;;1.33;;
20772;SDS011;10546;50.674;4.616;2022-12-29T05:43:44;5.87;;;1.17;;
20772;SDS011;10546;50.674;4.616;2022-12-29T05:46:10;4.80;;;1.00;;
20772;SDS011;10546;50.674;4.616;2022-12-29T05:48:36;4.73;;;1.00;;
20772;SDS011;10546;50.674;4.616;2022-12-29T05:51:01;7.27;;;1.27;;
20772;SDS011;10546;50.674;4.616;2022-12-29T05:53:27;6.60;;;1.00;;
20772;SDS011;10546;50.674;4.616;2022-12-29T05:55:52;5.13;;;1.37;;
20772;SDS011;10546;50.674;4.616;2022-12-29T05:58:18;7.77;;;1.80;;
20772;SDS011;10546;50.674;4.616;2022-12-29T06:00:44;8.13;;;1.57;;
20772;SDS011;10546;50.674;4.616;2022-12-29T06:03:09;4.13;;;1.10;;
20772;SDS011;10546;50.674;4.616;2022-12-29T06:05:35;6.67;;;1.43;;
20772;SDS011;10546;50.674;4.616;2022-12-29T06:08:01;5.83;;;1.10;;
20772;SDS011;10546;50.674;4.616;2022-12-29T06:10:27;7.97;;;1.90;;
20772;SDS011;10546;50.674;4.616;2022-12-29T06:12:52;8.80;;;1.47;;
20772;SDS011;10546;50.674;4.616;2022-12-29T06:15:18;4.03;;;1.30;;
20772;SDS011;10546;50.674;4.616;2022-12-29T06:17:43;8.50;;;0.93;;
20772;SDS011;10546;50.674;4.616;2022-12-29T06:20:09;7.07;;;1.20;;
20772;SDS011;10546;50.674;4.616;2022-12-29T06:22:35;3.80;;;1.20;;
20772;SDS011;10546;50.674;4.616;2022-12-29T06:25:01;8.40;;;1.50;;
20772;SDS011;10546;50.674;4.616;2022-12-29T06:27:28;6.70;;;1.33;;
20772;SDS011;10546;50.674;4.616;2022-12-29T06:29:53;6.20;;;1.40;;
20772;SDS011;10546;50.674;4.616;2022-12-29T06:32:19;6.07;;;1.00;;
20772;SDS011;10546;50.674;4.616;2022-12-29T06:34:45;7.23;;;1.83;;
20772;SDS011;10546;50.674;4.616;2022-12-29T06:37:10;1.80;;;1.30;;
20772;SDS011;10546;50.674;4.616;2022-12-29T06:39:36;6.00;;;1.20;;
20772;SDS011;10546;50.674;4.616;2022-12-29T06:42:02;6.87;;;1.30;;
20772;SDS011;10546;50.674;4.616;2022-12-29T06:44:28;5.40;;;1.37;;
20772;SDS011;10546;50.674;4.616;2022-12-29T06:46:54;6.97;;;1.20;;
20772;SDS011;10546;50.674;4.616;2022-12-29T06:49:19;7.20;;;1.30;;
20772;SDS011;10546;50.674;4.616;2022-12-29T06:51:45;4.73;;;1.23;;
20772;SDS011;10546;50.674;4.616;2022-12-29T06:54:11;6.67;;;1.50;;
20772;SDS011;10546;50.674;4.616;2022-12-29T06:56:36;9.33;;;1.73;;
20772;SDS011;10546;50.674;4.616;2022-12-29T06:59:02;7.30;;;1.40;;
20772;SDS011;10546;50.674;4.616;2022-12-29T07:01:28;8.20;;;1.50;;
20772;SDS011;10546;50.674;4.616;2022-12-29T07:03:53;10.20;;;1.77;;
20772;SDS011;10546;50.674;4.616;2022-12-29T07:06:19;13.90;;;1.80;;
20772;SDS011;10546;50.674;4.616;2022-12-29T07:08:45;8.60;;;1.60;;
20772;SDS011;10546;50.674;4.616;2022-12-29T07:11:10;8.73;;;1.80;;
20772;SDS011;10546;50.674;4.616;2022-12-29T07:13:36;11.33;;;1.50;;
20772;SDS011;10546;50.674;4.616;2022-12-29T07:16:06;11.40;;;1.63;;
20772;SDS011;10546;50.674;4.616;2022-12-29T07:18:32;9.37;;;2.13;;
20772;SDS011;10546;50.674;4.616;2022-12-29T07:20:57;10.53;;;2.13;;
20772;SDS011;10546;50.674;4.616;2022-12-29T07:23:23;10.23;;;1.63;;
20772;SDS011;10546;50.674;4.616;2022-12-29T07:25:48;7.33;;;1.40;;
20772;SDS011;10546;50.674;4.616;2022-12-29T07:28:14;12.20;;;2.03;;
20772;SDS011;10546;50.674;4.616;2022-12-29T07:30:40;10.43;;;2.07;;
20772;SDS011;10546;50.674;4.616;2022-12-29T07:33:05;2.60;;;1.07;;
20772;SDS011;10546;50.674;4.616;2022-12-29T07:35:31;10.53;;;2.03;;
20772;SDS011;10546;50.674;4.616;2022-12-29T07:37:58;7.10;;;1.73;;
20772;SDS011;10546;50.674;4.616;2022-12-29T07:40:24;9.77;;;2.17;;
20772;SDS011;10546;50.674;4.616;2022-12-29T07:42:50;7.20;;;2.23;;
20772;SDS011;10546;50.674;4.616;2022-12-29T07:45:15;7.83;;;1.60;;
20772;SDS011;10546;50.674;4.616;2022-12-29T07:47:41;8.77;;;1.90;;
20772;SDS011;10546;50.674;4.616;2022-12-29T07:50:07;8.60;;;1.43;;
20772;SDS011;10546;50.674;4.616;2022-12-29T07:52:32;7.23;;;1.90;;
20772;SDS011;10546;50.674;4.616;2022-12-29T07:54:58;8.03;;;1.50;;
20772;SDS011;10546;50.674;4.616;2022-12-29T07:57:23;10.27;;;1.90;;
20772;SDS011;10546;50.674;4.616;2022-12-29T07:59:49;9.43;;;1.43;;
20772;SDS011;10546;50.674;4.616;2022-12-29T08:02:14;5.87;;;1.43;;
20772;SDS011;10546;50.674;4.616;2022-12-29T08:04:40;5.67;;;1.83;;
20772;SDS011;10546;50.674;4.616;2022-12-29T08:07:05;10.07;;;1.63;;
20772;SDS011;10546;50.674;4.616;2022-12-29T08:09:31;6.23;;;1.93;;
20772;SDS011;10546;50.674;4.616;2022-12-29T08:11:57;5.70;;;1.50;;
20772;SDS011;10546;50.674;4.616;2022-12-29T08:14:22;16.03;;;1.93;;
20772;SDS011;10546;50.674;4.616;2022-12-29T08:16:48;7.93;;;1.60;;
20772;SDS011;10546;50.674;4.616;2022-12-29T08:19:14;6.47;;;1.80;;
20772;SDS011;10546;50.674;4.616;2022-12-29T08:21:39;7.40;;;1.80;;
20772;SDS011;10546;50.674;4.616;2022-12-29T08:24:05;5.77;;;1.93;;
20772;SDS011;10546;50.674;4.616;2022-12-29T08:26:32;7.40;;;1.70;;
20772;SDS011;10546;50.674;4.616;2022-12-29T08:28:58;10.37;;;1.40;;
20772;SDS011;10546;50.674;4.616;2022-12-29T08:31:23;5.07;;;1.40;;
20772;SDS011;10546;50.674;4.616;2022-12-29T08:33:49;9.63;;;2.20;;
20772;SDS011;10546;50.674;4.616;2022-12-29T08:36:15;6.77;;;1.47;;
20772;SDS011;10546;50.674;4.616;2022-12-29T08:38:41;10.40;;;1.80;;
20772;SDS011;10546;50.674;4.616;2022-12-29T08:41:06;7.60;;;1.60;;
20772;SDS011;10546;50.674;4.616;2022-12-29T08:43:32;8.83;;;0.80;;
20772;SDS011;10546;50.674;4.616;2022-12-29T08:45:58;4.60;;;1.47;;
20772;SDS011;10546;50.674;4.616;2022-12-29T08:48:23;8.60;;;1.63;;
20772;SDS011;10546;50.674;4.616;2022-12-29T08:50:50;12.37;;;1.60;;
20772;SDS011;10546;50.674;4.616;2022-12-29T08:53:15;13.40;;;1.90;;
20772;SDS011;10546;50.674;4.616;2022-12-29T08:55:44;7.40;;;1.93;;
20772;SDS011;10546;50.674;4.616;2022-12-29T08:58:11;9.80;;;1.80;;
20772;SDS011;10546;50.674;4.616;2022-12-29T09:00:39;11.47;;;2.37;;
20772;SDS011;10546;50.674;4.616;2022-12-29T09:03:07;8.33;;;1.37;;
20772;SDS011;10546;50.674;4.616;2022-12-29T09:05:33;12.63;;;2.03;;
20772;SDS011;10546;50.674;4.616;2022-12-29T09:07:58;13.73;;;1.83;;
20772;SDS011;10546;50.674;4.616;2022-12-29T09:10:24;7.17;;;1.87;;
20772;SDS011;10546;50.674;4.616;2022-12-29T09:12:50;11.03;;;1.57;;
20772;SDS011;10546;50.674;4.616;2022-12-29T09:15:15;4.80;;;1.40;;
20772;SDS011;10546;50.674;4.616;2022-12-29T09:17:41;8.67;;;1.50;;
20772;SDS011;10546;50.674;4.616;2022-12-29T09:20:10;8.37;;;1.60;;
20772;SDS011;10546;50.674;4.616;2022-12-29T09:22:41;10.67;;;1.73;;
20772;SDS011;10546;50.674;4.616;2022-12-29T09:25:07;5.97;;;1.20;;
20772;SDS011;10546;50.674;4.616;2022-12-29T09:27:34;11.17;;;1.97;;
20772;SDS011;10546;50.674;4.616;2022-12-29T09:29:59;9.47;;;1.87;;
20772;SDS011;10546;50.674;4.616;2022-12-29T09:32:25;8.37;;;1.83;;
20772;SDS011;10546;50.674;4.616;2022-12-29T09:34:51;8.10;;;1.70;;
20772;SDS011;10546;50.674;4.616;2022-12-29T09:37:16;4.47;;;1.30;;
20772;SDS011;10546;50.674;4.616;2022-12-29T09:39:42;8.67;;;1.50;;
20772;SDS011;10546;50.674;4.616;2022-12-29T09:42:16;9.43;;;1.90;;
20772;SDS011;10546;50.674;4.616;2022-12-29T09:47:31;10.13;;;2.07;;
20772;SDS011;10546;50.674;4.616;2022-12-29T09:49:59;4.40;;;1.60;;
20772;SDS011;10546;50.674;4.616;2022-12-29T09:52:46;5.60;;;2.40;;
20772;SDS011;10546;50.674;4.616;2022-12-29T09:55:50;8.33;;;2.30;;
20772;SDS011;10546;50.674;4.616;2022-12-29T09:58:24;11.20;;;1.93;;
20772;SDS011;10546;50.674;4.616;2022-12-29T10:03:47;12.33;;;1.50;;
20772;SDS011;10546;50.674;4.616;2022-12-29T10:06:15;8.53;;;2.00;;
20772;SDS011;10546;50.674;4.616;2022-12-29T10:24:53;8.33;;;1.57;;
20772;SDS011;10546;50.674;4.616;2022-12-29T10:27:21;8.07;;;1.60;;
20772;SDS011;10546;50.674;4.616;2022-12-29T10:29:55;11.03;;;2.10;;
20772;SDS011;10546;50.674;4.616;2022-12-29T10:35:30;11.70;;;2.33;;
20772;SDS011;10546;50.674;4.616;2022-12-29T10:38:05;9.30;;;1.70;;
20772;SDS011;10546;50.674;4.616;2022-12-29T10:43:32;13.87;;;1.97;;
20772;SDS011;10546;50.674;4.616;2022-12-29T10:46:02;11.70;;;2.10;;
20772;SDS011;10546;50.674;4.616;2022-12-29T10:48:32;7.80;;;1.60;;
20772;SDS011;10546;50.674;4.616;2022-12-29T10:51:00;6.57;;;1.70;;
20772;SDS011;10546;50.674;4.616;2022-12-29T10:53:50;11.67;;;2.03;;
20772;SDS011;10546;50.674;4.616;2022-12-29T10:56:29;6.60;;;1.83;;
20772;SDS011;10546;50.674;4.616;2022-12-29T10:59:02;15.53;;;3.70;;
20772;SDS011;10546;50.674;4.616;2022-12-29T11:01:39;14.60;;;2.87;;
20772;SDS011;10546;50.674;4.616;2022-12-29T11:04:21;7.63;;;1.60;;
20772;SDS011;10546;50.674;4.616;2022-12-29T11:06:57;7.23;;;1.50;;
20772;SDS011;10546;50.674;4.616;2022-12-29T11:09:25;10.33;;;1.80;;
20772;SDS011;10546;50.674;4.616;2022-12-29T11:11:55;6.13;;;1.80;;
20772;SDS011;10546;50.674;4.616;2022-12-29T11:14:25;9.70;;;1.57;;
20772;SDS011;10546;50.674;4.616;2022-12-29T11:17:00;12.73;;;2.80;;
20772;SDS011;10546;50.674;4.616;2022-12-29T11:19:31;11.03;;;2.03;;
20772;SDS011;10546;50.674;4.616;2022-12-29T11:24:51;8.67;;;2.20;;
20772;SDS011;10546;50.674;4.616;2022-12-29T11:29:47;11.13;;;1.77;;
20772;SDS011;10546;50.674;4.616;2022-12-29T11:32:18;12.47;;;2.17;;
20772;SDS011;10546;50.674;4.616;2022-12-29T11:34:44;15.97;;;2.10;;
20772;SDS011;10546;50.674;4.616;2022-12-29T11:37:18;2.93;;;1.53;;
20772;SDS011;10546;50.674;4.616;2022-12-29T11:39:57;11.73;;;1.90;;
20772;SDS011;10546;50.674;4.616;2022-12-29T11:42:38;13.50;;;2.13;;
20772;SDS011;10546;50.674;4.616;2022-12-29T11:45:26;7.50;;;1.40;;
20772;SDS011;10546;50.674;4.616;2022-12-29T11:50:31;9.47;;;1.67;;
20772;SDS011;10546;50.674;4.616;2022-12-29T11:55:30;11.00;;;2.37;;
20772;SDS011;10546;50.674;4.616;2022-12-29T11:57:57;8.40;;;1.90;;
20772;SDS011;10546;50.674;4.616;2022-12-29T12:00:27;9.30;;;1.63;;
20772;SDS011;10546;50.674;4.616;2022-12-29T12:05:37;6.07;;;1.80;;
20772;SDS011;10546;50.674;4.616;2022-12-29T12:08:21;11.70;;;1.80;;
20772;SDS011;10546;50.674;4.616;2022-12-29T12:11:15;10.00;;;2.00;;
20772;SDS011;10546;50.674;4.616;2022-12-29T12:13:57;6.17;;;1.80;;
20772;SDS011;10546;50.674;4.616;2022-12-29T12:16:32;9.00;;;1.90;;
20772;SDS011;10546;50.674;4.616;2022-12-29T12:21:52;10.27;;;1.87;;
20772;SDS011;10546;50.674;4.616;2022-12-29T12:27:07;10.63;;;2.53;;
20772;SDS011;10546;50.674;4.616;2022-12-29T12:29:46;7.27;;;1.97;;
20772;SDS011;10546;50.674;4.616;2022-12-29T12:32:43;6.10;;;1.40;;
20772;SDS011;10546;50.674;4.616;2022-12-29T12:35:13;10.47;;;2.07;;
20772;SDS011;10546;50.674;4.616;2022-12-29T12:37:48;17.37;;;3.30;;
20772;SDS011;10546;50.674;4.616;2022-12-29T12:43:11;4.40;;;1.83;;
20772;SDS011;10546;50.674;4.616;2022-12-29T12:51:25;11.20;;;1.73;;
20772;SDS011;10546;50.674;4.616;2022-12-29T12:59:41;3.77;;;1.40;;
20772;SDS011;10546;50.674;4.616;2022-12-29T13:07:32;13.30;;;1.70;;
20772;SDS011;10546;50.674;4.616;2022-12-29T13:26:05;9.93;;;2.27;;
20772;SDS011;10546;50.674;4.616;2022-12-29T13:34:34;9.70;;;2.00;;
20772;SDS011;10546;50.674;4.616;2022-12-29T13:37:03;8.53;;;1.93;;
20772;SDS011;10546;50.674;4.616;2022-12-29T13:39:38;11.97;;;2.73;;
20772;SDS011;10546;50.674;4.616;2022-12-29T13:42:12;6.90;;;2.33;;
20772;SDS011;10546;50.674;4.616;2022-12-29T13:44:39;10.90;;;2.37;;
20772;SDS011;10546;50.674;4.616;2022-12-29T13:50:18;11.20;;;2.43;;
20772;SDS011;10546;50.674;4.616;2022-12-29T13:55:28;11.50;;;1.87;;
20772;SDS011;10546;50.674;4.616;2022-12-29T13:58:09;7.80;;;1.60;;
20772;SDS011;10546;50.674;4.616;2022-12-29T14:00:48;17.50;;;2.73;;
20772;SDS011;10546;50.674;4.616;2022-12-29T14:08:44;10.33;;;2.40;;
20772;SDS011;10546;50.674;4.616;2022-12-29T14:11:11;8.30;;;2.20;;
20772;SDS011;10546;50.674;4.616;2022-12-29T14:13:41;12.30;;;2.63;;
20772;SDS011;10546;50.674;4.616;2022-12-29T14:16:21;8.80;;;2.57;;
20772;SDS011;10546;50.674;4.616;2022-12-29T14:18:51;11.93;;;2.57;;
20772;SDS011;10546;50.674;4.616;2022-12-29T14:21:19;16.07;;;2.47;;
20772;SDS011;10546;50.674;4.616;2022-12-29T14:23:52;12.27;;;2.27;;
20772;SDS011;10546;50.674;4.616;2022-12-29T14:28:53;9.40;;;2.10;;
20772;SDS011;10546;50.674;4.616;2022-12-29T14:39:28;14.80;;;4.67;;
20772;SDS011;10546;50.674;4.616;2022-12-29T14:44:45;12.33;;;2.40;;
20772;SDS011;10546;50.674;4.616;2022-12-29T14:49:55;11.70;;;3.00;;
20772;SDS011;10546;50.674;4.616;2022-12-29T14:52:32;13.87;;;2.70;;
20772;SDS011;10546;50.674;4.616;2022-12-29T14:57:41;15.23;;;3.17;;
20772;SDS011;10546;50.674;4.616;2022-12-29T15:00:15;23.43;;;3.33;;
20772;SDS011;10546;50.674;4.616;2022-12-29T15:02:53;16.50;;;4.53;;
20772;SDS011;10546;50.674;4.616;2022-12-29T15:05:45;12.80;;;2.93;;
20772;SDS011;10546;50.674;4.616;2022-12-29T15:08:20;15.53;;;3.03;;
20772;SDS011;10546;50.674;4.616;2022-12-29T15:11:03;12.23;;;2.27;;
20772;SDS011;10546;50.674;4.616;2022-12-29T15:13:39;13.57;;;2.90;;
20772;SDS011;10546;50.674;4.616;2022-12-29T15:16:29;12.80;;;3.33;;
20772;SDS011;10546;50.674;4.616;2022-12-29T15:19:00;19.07;;;4.57;;
20772;SDS011;10546;50.674;4.616;2022-12-29T15:21:27;20.27;;;4.97;;
20772;SDS011;10546;50.674;4.616;2022-12-29T15:23:55;12.43;;;2.73;;
20772;SDS011;10546;50.674;4.616;2022-12-29T15:26:21;19.77;;;3.43;;
20772;SDS011;10546;50.674;4.616;2022-12-29T15:28:48;21.00;;;5.10;;
20772;SDS011;10546;50.674;4.616;2022-12-29T15:31:17;22.67;;;4.00;;
20772;SDS011;10546;50.674;4.616;2022-12-29T15:33:49;18.37;;;2.73;;
20772;SDS011;10546;50.674;4.616;2022-12-29T15:36:20;17.73;;;3.30;;
20772;SDS011;10546;50.674;4.616;2022-12-29T15:38:50;15.37;;;2.60;;
20772;SDS011;10546;50.674;4.616;2022-12-29T15:47:24;6.87;;;2.10;;
20772;SDS011;10546;50.674;4.616;2022-12-29T15:50:04;9.70;;;2.50;;
20772;SDS011;10546;50.674;4.616;2022-12-29T15:52:39;14.07;;;2.90;;
20772;SDS011;10546;50.674;4.616;2022-12-29T15:55:05;16.63;;;3.17;;
20772;SDS011;10546;50.674;4.616;2022-12-29T15:57:42;15.27;;;2.90;;
20772;SDS011;10546;50.674;4.616;2022-12-29T16:00:20;8.97;;;2.60;;
20772;SDS011;10546;50.674;4.616;2022-12-29T16:02:50;13.13;;;2.73;;
20772;SDS011;10546;50.674;4.616;2022-12-29T16:05:17;21.77;;;3.67;;
20772;SDS011;10546;50.674;4.616;2022-12-29T16:07:55;15.47;;;2.57;;
20772;SDS011;10546;50.674;4.616;2022-12-29T16:13:06;17.33;;;3.33;;
20772;SDS011;10546;50.674;4.616;2022-12-29T16:15:47;12.73;;;2.87;;
20772;SDS011;10546;50.674;4.616;2022-12-29T16:18:24;8.10;;;2.60;;
20772;SDS011;10546;50.674;4.616;2022-12-29T16:20:54;12.83;;;2.77;;
20772;SDS011;10546;50.674;4.616;2022-12-29T16:23:25;11.10;;;3.53;;
20772;SDS011;10546;50.674;4.616;2022-12-29T16:25:52;14.57;;;3.10;;
20772;SDS011;10546;50.674;4.616;2022-12-29T16:28:21;10.83;;;2.97;;
20772;SDS011;10546;50.674;4.616;2022-12-29T16:31:15;18.30;;;4.07;;
20772;SDS011;10546;50.674;4.616;2022-12-29T16:33:46;17.00;;;5.10;;
20772;SDS011;10546;50.674;4.616;2022-12-29T16:36:24;10.83;;;2.93;;
20772;SDS011;10546;50.674;4.616;2022-12-29T16:39:08;8.47;;;2.40;;
20772;SDS011;10546;50.674;4.616;2022-12-29T16:41:40;12.53;;;3.10;;
20772;SDS011;10546;50.674;4.616;2022-12-29T16:44:19;14.03;;;3.20;;
20772;SDS011;10546;50.674;4.616;2022-12-29T16:47:32;13.00;;;3.17;;
20772;SDS011;10546;50.674;4.616;2022-12-29T16:49:35;12.33;;;3.03;;
20772;SDS011;10546;50.674;4.616;2022-12-29T16:52:13;10.67;;;2.93;;
20772;SDS011;10546;50.674;4.616;2022-12-29T16:54:44;10.90;;;2.53;;
20772;SDS011;10546;50.674;4.616;2022-12-29T16:57:21;4.90;;;2.10;;
20772;SDS011;10546;50.674;4.616;2022-12-29T16:59:49;10.83;;;2.27;;
20772;SDS011;10546;50.674;4.616;2022-12-29T17:02:19;9.57;;;3.63;;
20772;SDS011;10546;50.674;4.616;2022-12-29T17:04:46;14.13;;;4.40;;
20772;SDS011;10546;50.674;4.616;2022-12-29T17:07:18;9.97;;;2.73;;
20772;SDS011;10546;50.674;4.616;2022-12-29T17:09:48;14.17;;;3.07;;
20772;SDS011;10546;50.674;4.616;2022-12-29T17:12:25;17.20;;;3.80;;
20772;SDS011;10546;50.674;4.616;2022-12-29T17:14:58;13.77;;;4.57;;
20772;SDS011;10546;50.674;4.616;2022-12-29T17:22:30;13.33;;;4.10;;
20772;SDS011;10546;50.674;4.616;2022-12-29T17:24:57;13.40;;;3.60;;
20772;SDS011;10546;50.674;4.616;2022-12-29T17:27:26;19.10;;;3.93;;
20772;SDS011;10546;50.674;4.616;2022-12-29T17:29:55;17.17;;;3.40;;
20772;SDS011;10546;50.674;4.616;2022-12-29T17:32:24;13.97;;;4.27;;
20772;SDS011;10546;50.674;4.616;2022-12-29T17:34:50;11.30;;;3.60;;
20772;SDS011;10546;50.674;4.616;2022-12-29T17:39:48;14.83;;;4.33;;
20772;SDS011;10546;50.674;4.616;2022-12-29T17:42:13;64.37;;;34.90;;
20772;SDS011;10546;50.674;4.616;2022-12-29T17:44:39;22.63;;;8.43;;
20772;SDS011;10546;50.674;4.616;2022-12-29T17:47:07;19.57;;;7.30;;